Bluegrove, Texas
Current Conditions -  °F | °C
As of 3:15 PM on Thursday 20 Nov 2014 (Local Time) from KCWC Reporting Station
Clear Clear  
Wind Chill: 21°   Ceiling: Unl
Heat Index: 21°   Visibility: 10mi
Dew Point:   Wind: 7mph
Humidity: 31%   Direction: 210°SSW
Pressure: 29.95"   Gusts: NA
Location:  33.67°N, 98.23°W
Report Text: KCWC 202115Z AUTO 21006KT 10SM CLR 21/03 A2995 RMK AO2 T02100031
Loading
Personal Weather Stations






























Interactive Weather Map New forecast layout! Learn more

10-Day Weather Forecast

Advertisements
Track Severe Weather on mobile